createdAt,value
2023-04-30T00:01:14.841Z,3.5
2023-04-30T00:02:30.159Z,4.3
2023-04-30T00:03:46.442Z,4.9
2023-04-30T00:05:02.741Z,6
2023-04-30T00:06:19.033Z,5.3
2023-04-30T00:07:35.319Z,5.1
2023-04-30T00:08:51.621Z,4.9
2023-04-30T00:10:07.914Z,4.3
2023-04-30T00:11:24.223Z,4.3
2023-04-30T00:12:40.515Z,3.5
2023-04-30T00:13:56.801Z,3.6
2023-04-30T00:15:13.094Z,3.4
2023-04-30T00:16:29.387Z,4.3
2023-04-30T00:17:45.682Z,3.9
2023-04-30T00:19:01.002Z,3.9
2023-04-30T00:20:17.302Z,4.3
2023-04-30T00:21:33.583Z,3.5
2023-04-30T00:22:49.885Z,3.3
2023-04-30T00:24:06.185Z,3.6
2023-04-30T00:25:22.473Z,3.4
2023-04-30T00:26:38.768Z,3.2
2023-04-30T00:27:55.067Z,3.3
2023-04-30T00:29:11.352Z,3.4
2023-04-30T00:30:27.646Z,3.7
2023-04-30T00:31:43.951Z,3.4
2023-04-30T00:33:00.233Z,3.6
2023-04-30T00:34:16.535Z,3.5
2023-04-30T00:35:31.848Z,3.2
2023-04-30T00:36:48.139Z,3.8
2023-04-30T00:38:04.435Z,3.7
2023-04-30T00:39:20.723Z,4
2023-04-30T00:40:37.023Z,3
2023-04-30T00:41:53.312Z,3.6
2023-04-30T00:43:09.611Z,2.9
2023-04-30T00:44:25.902Z,3.5
2023-04-30T00:45:42.207Z,3.1
2023-04-30T00:46:58.490Z,3
2023-04-30T00:48:14.785Z,2.7
2023-04-30T00:49:31.097Z,2.5
2023-04-30T00:50:47.377Z,2.5
2023-04-30T00:52:02.682Z,2.9
2023-04-30T00:53:18.993Z,2.5
2023-04-30T00:54:35.288Z,2.6
2023-04-30T00:55:51.566Z,2.7
2023-04-30T00:57:07.879Z,2.6
2023-04-30T00:58:24.170Z,3
2023-04-30T00:59:40.452Z,2.9
2023-04-30T01:00:56.763Z,2.7
2023-04-30T01:02:13.038Z,2.9
2023-04-30T01:03:29.350Z,2.3
2023-04-30T01:04:45.644Z,2.2
2023-04-30T01:06:01.940Z,3.5
2023-04-30T01:07:18.237Z,3.4
2023-04-30T01:08:33.538Z,3.3
2023-04-30T01:09:49.826Z,3.4
2023-04-30T01:11:06.136Z,3
2023-04-30T01:12:22.420Z,2.9
2023-04-30T01:13:38.710Z,2.1
2023-04-30T01:14:55.013Z,1.9
2023-04-30T01:16:11.309Z,1.3
2023-04-30T01:17:27.594Z,1.6
2023-04-30T01:18:43.886Z,1.4
2023-04-30T01:20:00.182Z,1.3
2023-04-30T01:21:16.478Z,1.3
2023-04-30T01:22:32.773Z,1.4
2023-04-30T01:23:49.076Z,1.5
2023-04-30T01:25:04.381Z,1.5
2023-04-30T01:26:20.675Z,1.5
2023-04-30T01:27:36.969Z,1.5
2023-04-30T01:28:53.259Z,1.2
2023-04-30T01:30:09.556Z,1.6
2023-04-30T01:31:25.861Z,1.4
2023-04-30T01:32:42.150Z,1.2
2023-04-30T01:33:58.438Z,1.7
2023-04-30T01:35:14.747Z,1.4
2023-04-30T01:36:31.028Z,1.4
2023-04-30T01:37:47.331Z,1.3
2023-04-30T01:39:03.629Z,1.3
2023-04-30T01:40:19.911Z,1.2
2023-04-30T01:41:35.239Z,1.4
2023-04-30T01:42:51.514Z,1.2
2023-04-30T01:44:07.815Z,1.5
2023-04-30T01:45:24.111Z,1.3
2023-04-30T01:46:40.407Z,1.7
2023-04-30T01:47:56.695Z,1.7
2023-04-30T01:49:13.008Z,1.4
2023-04-30T01:50:29.286Z,1.6
2023-04-30T01:51:45.596Z,1.4
2023-04-30T01:53:01.894Z,1.3
2023-04-30T01:54:18.172Z,1.5
2023-04-30T01:55:34.473Z,1.2
2023-04-30T01:56:50.758Z,1.6
2023-04-30T01:58:06.067Z,1.4
2023-04-30T01:59:22.375Z,1.4
2023-04-30T02:00:38.663Z,1.6
2023-04-30T02:01:54.953Z,1.4
2023-04-30T02:03:11.249Z,1.4
2023-04-30T02:04:27.552Z,1.3
2023-04-30T02:05:43.850Z,1.4
2023-04-30T02:07:00.105Z,1.5
2023-04-30T02:08:16.406Z,1.3
2023-04-30T02:09:32.696Z,1.4
2023-04-30T02:10:48.981Z,1.3
2023-04-30T02:12:05.277Z,1.6
2023-04-30T02:13:21.571Z,1.3
2023-04-30T02:14:36.884Z,1.3
2023-04-30T02:15:53.177Z,1.6
2023-04-30T02:17:09.476Z,1.3
2023-04-30T02:18:25.764Z,1.4
2023-04-30T02:19:42.060Z,1.3
2023-04-30T02:20:58.358Z,1.3
2023-04-30T02:22:14.657Z,1.4
2023-04-30T02:23:30.957Z,1.4
2023-04-30T02:24:47.253Z,1.2
2023-04-30T02:26:03.540Z,1.1
2023-04-30T02:27:19.841Z,1.1
2023-04-30T02:28:36.121Z,1.4
2023-04-30T02:29:52.427Z,1.3
2023-04-30T02:32:24.040Z,1.4
2023-04-30T02:33:40.317Z,1.4
2023-04-30T02:34:56.619Z,1.7
2023-04-30T02:36:12.908Z,1.2
2023-04-30T02:37:29.207Z,1.7
2023-04-30T02:38:45.502Z,1.5
2023-04-30T02:40:01.795Z,1.2
2023-04-30T02:41:18.092Z,1.6
2023-04-30T02:42:34.399Z,1.5
2023-04-30T02:43:50.687Z,1.5
2023-04-30T02:45:06.984Z,1.5
2023-04-30T02:46:23.265Z,1.5
2023-04-30T02:47:38.590Z,2.1
2023-04-30T02:48:54.882Z,1.7
2023-04-30T02:50:11.176Z,1.6
2023-04-30T02:51:27.461Z,1.7
2023-04-30T02:52:43.771Z,1.6
2023-04-30T02:54:00.050Z,1.6
2023-04-30T02:55:16.348Z,1.5
2023-04-30T02:56:32.653Z,1.5
2023-04-30T02:57:48.949Z,1.6
2023-04-30T02:59:05.243Z,1.4
2023-04-30T03:00:21.531Z,1.9
2023-04-30T03:01:37.832Z,1.5
2023-04-30T03:02:54.128Z,1.3
2023-04-30T03:04:09.431Z,1.5
2023-04-30T03:05:25.719Z,1.3
2023-04-30T03:06:42.029Z,1.4
2023-04-30T03:07:58.324Z,1.4
2023-04-30T03:09:14.606Z,1.6
2023-04-30T03:10:30.897Z,1.5
2023-04-30T03:11:47.209Z,1.6
2023-04-30T03:13:03.446Z,1.3
2023-04-30T03:14:19.722Z,1.7
2023-04-30T03:15:36.027Z,1.6
2023-04-30T03:16:52.290Z,1.4
2023-04-30T03:18:08.567Z,1.3
2023-04-30T03:19:24.879Z,1.6
2023-04-30T03:20:40.184Z,2.1
2023-04-30T03:21:56.482Z,1.5
2023-04-30T03:23:12.721Z,1.6
2023-04-30T03:24:29.035Z,1.5
2023-04-30T03:25:45.312Z,1.7
2023-04-30T03:27:01.565Z,1.3
2023-04-30T03:28:17.804Z,1.4
2023-04-30T03:29:34.046Z,1.5
2023-04-30T03:30:50.300Z,1.4
2023-04-30T03:32:06.539Z,1.6
2023-04-30T03:33:22.782Z,1.4
2023-04-30T03:34:39.018Z,1.5
2023-04-30T03:35:55.251Z,1.5
2023-04-30T03:37:10.511Z,1.4
2023-04-30T03:38:26.754Z,1.6
2023-04-30T03:39:42.987Z,1.4
2023-04-30T03:40:59.234Z,1.5
2023-04-30T03:42:15.472Z,1.4
2023-04-30T03:43:31.717Z,1.7
2023-04-30T03:44:47.965Z,1.7
2023-04-30T03:46:04.203Z,1.6
2023-04-30T03:47:20.444Z,1.5
2023-04-30T03:48:36.681Z,1.5
2023-04-30T03:49:52.913Z,1.6
2023-04-30T03:51:09.156Z,1.7
2023-04-30T03:52:25.401Z,1.7
2023-04-30T03:53:40.666Z,2.1
2023-04-30T03:54:56.899Z,2
2023-04-30T03:56:13.134Z,1.9
2023-04-30T03:57:29.376Z,1.6
2023-04-30T03:58:45.618Z,1.6
2023-04-30T04:00:01.866Z,1.9
2023-04-30T04:01:18.097Z,2.2
2023-04-30T04:02:34.349Z,2
2023-04-30T04:03:50.581Z,1.9
2023-04-30T04:05:06.827Z,2.2
2023-04-30T04:06:23.073Z,1.9
2023-04-30T04:07:39.309Z,1.8
2023-04-30T04:08:55.541Z,2
2023-04-30T04:10:10.813Z,1.8
2023-04-30T04:11:27.043Z,1.8
2023-04-30T04:12:43.281Z,1.7
2023-04-30T04:13:59.522Z,2.1
2023-04-30T04:15:15.771Z,1.6
2023-04-30T04:16:32.014Z,1.9
2023-04-30T04:17:47.259Z,1.6
2023-04-30T04:19:03.513Z,1.7
2023-04-30T04:20:19.745Z,1.5
2023-04-30T04:21:35.991Z,1.7
2023-04-30T04:22:52.230Z,1.4
2023-04-30T04:24:08.471Z,1.6
2023-04-30T04:25:24.719Z,1.5
2023-04-30T04:26:40.954Z,1.6
2023-04-30T04:27:57.205Z,1.7
2023-04-30T04:29:13.443Z,1.5
2023-04-30T04:30:29.670Z,1.6
2023-04-30T04:31:45.914Z,1.9
2023-04-30T04:33:02.158Z,1.6
2023-04-30T04:34:17.407Z,1.9
2023-04-30T04:35:33.663Z,1.9
2023-04-30T04:36:49.902Z,1.8
2023-04-30T04:38:06.140Z,1.5
2023-04-30T04:39:22.375Z,1.5
2023-04-30T04:40:38.605Z,1.7
2023-04-30T04:41:54.857Z,1.8
2023-04-30T04:43:11.107Z,1.7
2023-04-30T04:44:27.346Z,1.4
2023-04-30T04:45:43.577Z,1.2
2023-04-30T04:46:59.824Z,1.8
2023-04-30T04:48:16.071Z,1.7
2023-04-30T04:49:32.301Z,1.8
2023-04-30T04:50:47.556Z,1.5
2023-04-30T04:52:03.814Z,1.8
2023-04-30T04:53:20.044Z,1.9
2023-04-30T04:54:36.283Z,1.7
2023-04-30T04:55:52.514Z,1.9
2023-04-30T04:57:08.771Z,1.9
2023-04-30T04:58:25.013Z,1.7
2023-04-30T04:59:41.250Z,2.1
2023-04-30T05:00:57.486Z,1.6
2023-04-30T05:02:13.723Z,1.7
2023-04-30T05:03:29.974Z,1.9
2023-04-30T05:04:46.219Z,1.5
2023-04-30T05:06:02.448Z,1.7
2023-04-30T05:07:17.703Z,1.7
2023-04-30T05:08:33.937Z,2.2
2023-04-30T05:09:50.200Z,2
2023-04-30T05:11:06.422Z,1.8
2023-04-30T05:12:22.681Z,1.6
2023-04-30T05:13:38.910Z,1.7
2023-04-30T05:14:55.144Z,1.8
2023-04-30T05:16:11.388Z,1.9
2023-04-30T05:17:27.641Z,2.1
2023-04-30T05:18:43.884Z,2.1
2023-04-30T05:20:00.119Z,1.6
2023-04-30T05:21:16.344Z,2.1
2023-04-30T05:22:32.597Z,1.8
2023-04-30T05:23:47.858Z,2
2023-04-30T05:25:04.090Z,1.9
2023-04-30T05:26:20.343Z,2.1
2023-04-30T05:27:36.576Z,1.7
2023-04-30T05:28:52.813Z,1.5
2023-04-30T05:30:09.068Z,1.8
2023-04-30T05:31:25.305Z,1.8
2023-04-30T05:32:41.529Z,1.6
2023-04-30T05:33:57.775Z,1.8
2023-04-30T05:35:14.026Z,1.6
2023-04-30T05:36:30.251Z,1.5
2023-04-30T05:37:46.494Z,1.8
2023-04-30T05:39:02.736Z,1.8
2023-04-30T05:40:18.007Z,2
2023-04-30T05:41:34.243Z,1.5
2023-04-30T05:42:50.481Z,1.7
2023-04-30T05:44:06.728Z,1.6
2023-04-30T05:45:22.969Z,1.9
2023-04-30T05:46:39.208Z,1.8
2023-04-30T05:47:55.454Z,1.5
2023-04-30T05:49:11.680Z,1.6
2023-04-30T05:50:27.919Z,1.5
2023-04-30T05:51:44.159Z,1.8
2023-04-30T05:53:00.403Z,1.6
2023-04-30T05:54:16.652Z,1.9
2023-04-30T05:55:32.882Z,1.8
2023-04-30T05:56:48.148Z,2.2
2023-04-30T05:58:04.389Z,1.6
2023-04-30T05:59:20.629Z,1.9
2023-04-30T06:00:36.863Z,1.6
2023-04-30T06:01:53.104Z,1.6
2023-04-30T06:03:09.347Z,1.7
2023-04-30T06:04:25.599Z,1.8
2023-04-30T06:05:41.822Z,1.6
2023-04-30T06:06:58.067Z,1.9
2023-04-30T06:08:14.319Z,1.8
2023-04-30T06:09:30.550Z,1.5
2023-04-30T06:10:46.784Z,1.8
2023-04-30T06:12:03.036Z,1.8
2023-04-30T06:13:18.274Z,1.6
2023-04-30T06:14:34.520Z,2
2023-04-30T06:15:50.779Z,1.7
2023-04-30T06:17:07.014Z,1.6
2023-04-30T06:18:23.236Z,1.7
2023-04-30T06:19:39.484Z,1.4
2023-04-30T06:20:55.734Z,1.7
2023-04-30T06:22:11.961Z,1.6
2023-04-30T06:23:28.218Z,1.9
2023-04-30T06:24:44.441Z,1.5
2023-04-30T06:26:00.703Z,1.4
2023-04-30T06:27:16.926Z,1.3
2023-04-30T06:28:33.180Z,1.7
2023-04-30T06:29:48.434Z,1.6
2023-04-30T06:31:04.670Z,2
2023-04-30T06:32:20.920Z,1.7
2023-04-30T06:33:37.159Z,1.5
2023-04-30T06:34:53.404Z,1.3
2023-04-30T06:36:09.635Z,1.5
2023-04-30T06:37:25.870Z,1.5
2023-04-30T06:38:42.127Z,2.1
2023-04-30T06:39:58.359Z,1.8
2023-04-30T06:41:14.592Z,1.7
2023-04-30T06:42:30.845Z,1.8
2023-04-30T06:43:47.072Z,1.5
2023-04-30T06:45:03.323Z,1.4
2023-04-30T06:46:18.573Z,1.8
2023-04-30T06:47:34.820Z,1.7
2023-04-30T06:48:51.051Z,1.7
2023-04-30T06:50:07.289Z,1.7
2023-04-30T06:51:23.546Z,1.7
2023-04-30T06:52:39.770Z,1.6
2023-04-30T06:53:56.011Z,1.5
2023-04-30T06:55:12.262Z,2.3
2023-04-30T06:56:28.494Z,1.6
2023-04-30T06:57:44.739Z,1.6
2023-04-30T06:59:00.982Z,1.5
2023-04-30T07:00:17.215Z,1.6
2023-04-30T07:01:33.467Z,1.4
2023-04-30T07:02:48.717Z,1.9
2023-04-30T07:04:04.952Z,1.9
2023-04-30T07:05:21.206Z,1.6
2023-04-30T07:06:37.438Z,1.4
2023-04-30T07:07:53.681Z,1.8
2023-04-30T07:09:09.919Z,1.6
2023-04-30T07:10:26.171Z,1.9
2023-04-30T07:11:42.413Z,1.5
2023-04-30T07:12:58.653Z,1.7
2023-04-30T07:14:14.881Z,1.6
2023-04-30T07:15:31.135Z,1.6
2023-04-30T07:16:47.376Z,1.9
2023-04-30T07:18:03.610Z,1.8
2023-04-30T07:19:18.873Z,1.7
2023-04-30T07:20:35.115Z,1.8
2023-04-30T07:21:51.351Z,1.7
2023-04-30T07:23:07.593Z,1.7
2023-04-30T07:24:23.821Z,1.8
2023-04-30T07:25:40.052Z,1.7
2023-04-30T07:26:56.312Z,1.7
2023-04-30T07:28:12.558Z,1.9
2023-04-30T07:29:28.785Z,1.6
2023-04-30T07:30:45.031Z,1.9
2023-04-30T07:32:01.275Z,2.2
2023-04-30T07:33:17.508Z,2
2023-04-30T07:34:33.744Z,1.7
2023-04-30T07:35:49.001Z,1.8
2023-04-30T07:37:05.255Z,1.7
2023-04-30T07:38:21.484Z,1.9
2023-04-30T07:39:37.729Z,1.8
2023-04-30T07:40:53.962Z,1.9
2023-04-30T07:42:10.208Z,1.7
2023-04-30T07:43:26.449Z,1.9
2023-04-30T07:44:42.691Z,1.8
2023-04-30T07:45:58.923Z,1.8
2023-04-30T07:47:15.181Z,2
2023-04-30T07:48:31.404Z,2
2023-04-30T07:49:47.638Z,2.1
2023-04-30T07:51:03.904Z,2.1
2023-04-30T07:52:19.155Z,2.1
2023-04-30T07:53:35.401Z,2.5
2023-04-30T07:54:51.633Z,2.1
2023-04-30T07:56:07.868Z,1.9
2023-04-30T07:57:24.118Z,2.1
2023-04-30T07:58:40.363Z,2.2
2023-04-30T07:59:56.592Z,2
2023-04-30T08:01:12.837Z,2
2023-04-30T08:02:29.080Z,2.5
2023-04-30T08:03:45.315Z,2.4
2023-04-30T08:05:01.548Z,2.3
2023-04-30T08:06:17.797Z,2.6
2023-04-30T08:07:34.027Z,2.3
2023-04-30T08:08:49.282Z,2.5
2023-04-30T08:10:05.544Z,2
2023-04-30T08:11:21.772Z,1.9
2023-04-30T08:12:38.016Z,2.4
2023-04-30T08:13:54.256Z,2.1
2023-04-30T08:15:10.492Z,1.9
2023-04-30T08:16:26.739Z,2
2023-04-30T08:17:42.971Z,2.2
2023-04-30T08:18:59.224Z,2.1
2023-04-30T08:20:15.472Z,2.7
2023-04-30T08:21:31.698Z,2.4
2023-04-30T08:22:47.947Z,2.5
2023-04-30T08:24:04.195Z,2.3
2023-04-30T08:25:19.453Z,2.7
2023-04-30T08:26:35.696Z,2
2023-04-30T08:27:51.920Z,1.9
2023-04-30T08:29:08.159Z,1.9
2023-04-30T08:30:24.412Z,2.3
2023-04-30T08:31:40.650Z,2.1
2023-04-30T08:32:55.908Z,2.4
2023-04-30T08:34:12.137Z,2.1
2023-04-30T08:35:28.389Z,2.2
2023-04-30T08:36:44.616Z,2.1
2023-04-30T08:38:00.865Z,2.1
2023-04-30T08:39:17.114Z,2.2
2023-04-30T08:40:33.349Z,2.3
2023-04-30T08:41:49.607Z,2
2023-04-30T08:43:05.843Z,2
2023-04-30T08:44:22.078Z,1.9
2023-04-30T08:45:38.324Z,1.8
2023-04-30T08:46:54.563Z,1.8
2023-04-30T08:48:10.806Z,2.1
2023-04-30T08:49:26.047Z,1.7
2023-04-30T08:50:42.286Z,1.8
2023-04-30T08:51:58.535Z,2
2023-04-30T08:53:14.763Z,1.6
2023-04-30T08:54:31.007Z,1.8
2023-04-30T08:55:47.255Z,2.4
2023-04-30T08:57:03.490Z,1.9
2023-04-30T08:58:19.737Z,1.7
2023-04-30T08:59:35.968Z,1.9
2023-04-30T09:00:52.220Z,1.9
2023-04-30T09:02:08.468Z,1.8
2023-04-30T09:03:24.693Z,1.4
2023-04-30T09:04:40.935Z,1.6
2023-04-30T09:05:56.194Z,1.5
2023-04-30T09:07:12.421Z,1.8
2023-04-30T09:08:28.674Z,1.8
2023-04-30T09:09:44.917Z,2
2023-04-30T09:11:01.146Z,1.7
2023-04-30T09:12:17.396Z,1.4
2023-04-30T09:13:33.634Z,1.5
2023-04-30T09:14:49.872Z,1.7
2023-04-30T09:16:06.122Z,1.4
2023-04-30T09:17:22.371Z,1.4
2023-04-30T09:18:38.607Z,1.6
2023-04-30T09:19:54.845Z,1.5
2023-04-30T09:21:11.103Z,1.5
2023-04-30T09:22:26.340Z,1.8
2023-04-30T09:23:42.593Z,1.6
2023-04-30T09:24:58.830Z,1.6
2023-04-30T09:26:15.062Z,1.4
2023-04-30T09:27:31.322Z,1.4
2023-04-30T09:28:47.546Z,1.7
2023-04-30T09:30:03.796Z,1.4
2023-04-30T09:31:20.032Z,1.4
2023-04-30T09:32:36.271Z,1.3
2023-04-30T09:33:52.505Z,1.3
2023-04-30T09:35:08.755Z,1.3
2023-04-30T09:36:24.993Z,1.8
2023-04-30T09:37:41.240Z,1.4
2023-04-30T09:38:56.491Z,1.3
2023-04-30T09:40:12.729Z,1.7
2023-04-30T09:42:45.210Z,1.5
2023-04-30T09:44:01.447Z,1.2
2023-04-30T09:45:17.693Z,1.7
2023-04-30T09:46:33.928Z,1.3
2023-04-30T09:47:50.171Z,1.3
2023-04-30T09:49:06.414Z,1.1
2023-04-30T09:50:22.649Z,1.3
2023-04-30T09:51:38.893Z,1
2023-04-30T09:52:55.133Z,1.1
2023-04-30T09:54:11.372Z,1
2023-04-30T09:55:26.631Z,1.1
2023-04-30T09:56:42.881Z,0.9
2023-04-30T09:57:59.101Z,1.1
2023-04-30T09:59:15.346Z,1.2
2023-04-30T10:00:31.584Z,1
2023-04-30T10:01:47.838Z,1.4
2023-04-30T10:03:04.068Z,1.2
2023-04-30T10:04:20.314Z,1.1
2023-04-30T10:05:36.566Z,1.2
2023-04-30T10:06:52.787Z,1.3
2023-04-30T10:08:09.033Z,0.9
2023-04-30T10:09:25.264Z,1.2
2023-04-30T10:10:41.521Z,1
2023-04-30T10:11:56.771Z,1.1
2023-04-30T10:13:13.003Z,1.6
2023-04-30T10:14:29.257Z,1.1
2023-04-30T10:15:45.500Z,1
2023-04-30T10:17:01.735Z,1.1
2023-04-30T10:18:17.980Z,1.3
2023-04-30T10:19:34.223Z,1.2
2023-04-30T10:20:50.461Z,1.3
2023-04-30T10:22:06.686Z,1.2
2023-04-30T10:23:22.937Z,1.2
2023-04-30T10:24:39.177Z,1
2023-04-30T10:25:55.426Z,1.2
2023-04-30T10:27:11.659Z,1.3
2023-04-30T10:28:26.906Z,1.1
2023-04-30T10:29:43.155Z,1.2
2023-04-30T10:30:59.384Z,1.4
2023-04-30T10:32:15.637Z,1.5
2023-04-30T10:33:31.885Z,1.1
2023-04-30T10:34:48.119Z,1
2023-04-30T10:36:04.372Z,1.2
2023-04-30T10:37:20.603Z,1.1
2023-04-30T10:38:36.840Z,1
2023-04-30T10:39:53.068Z,1
2023-04-30T10:41:09.319Z,1
2023-04-30T10:42:25.554Z,1.1
2023-04-30T10:43:41.803Z,1.1
2023-04-30T10:44:57.062Z,1
2023-04-30T10:46:13.304Z,0.9
2023-04-30T10:47:29.527Z,1.5
2023-04-30T10:48:45.773Z,1.1
2023-04-30T10:50:02.011Z,1.4
2023-04-30T10:51:18.263Z,0.9
2023-04-30T10:52:34.493Z,1.5
2023-04-30T10:53:50.733Z,1
2023-04-30T10:55:06.966Z,0.9
2023-04-30T10:56:23.221Z,1.3
2023-04-30T10:57:39.464Z,1
2023-04-30T10:58:55.697Z,1.2
2023-04-30T11:00:11.941Z,1.1
2023-04-30T11:01:27.188Z,1.1
2023-04-30T11:02:43.441Z,1.1
2023-04-30T11:03:59.672Z,1.2
2023-04-30T11:05:15.910Z,1.2
2023-04-30T11:06:32.153Z,1.2
2023-04-30T11:07:48.393Z,1.1
2023-04-30T11:09:04.632Z,1.3
2023-04-30T11:10:20.883Z,1.4
2023-04-30T11:11:37.124Z,1.2
2023-04-30T11:12:53.353Z,1.5
2023-04-30T11:14:09.599Z,1.3
2023-04-30T11:15:25.836Z,1.2
2023-04-30T11:16:42.072Z,1.2
2023-04-30T11:17:57.337Z,1.3
2023-04-30T11:19:13.583Z,1
2023-04-30T11:20:29.807Z,1.1
2023-04-30T11:21:46.057Z,1.1
2023-04-30T11:23:02.287Z,1.2
2023-04-30T11:24:18.545Z,1.1
2023-04-30T11:25:34.793Z,1.2
2023-04-30T11:26:51.018Z,1.2
2023-04-30T11:28:07.256Z,1.2
2023-04-30T11:29:23.503Z,1.3
2023-04-30T11:30:39.730Z,1.2
2023-04-30T11:31:55.979Z,1.2
2023-04-30T11:33:12.208Z,1.4
2023-04-30T11:34:27.482Z,1.5
2023-04-30T11:35:43.722Z,1.2
2023-04-30T11:36:59.950Z,1.3
2023-04-30T11:38:16.203Z,1.4
2023-04-30T11:39:32.437Z,1.4
2023-04-30T11:40:48.680Z,1.4
2023-04-30T11:42:04.925Z,1.5
2023-04-30T11:43:21.162Z,1.3
2023-04-30T11:44:37.391Z,1.5
2023-04-30T11:45:53.628Z,1.5
2023-04-30T11:47:09.878Z,1.1
2023-04-30T11:48:26.109Z,1.3
2023-04-30T11:49:42.355Z,1.2
2023-04-30T11:50:57.621Z,1.4
2023-04-30T11:52:13.845Z,1.1
2023-04-30T11:53:30.095Z,1.1
2023-04-30T11:54:46.341Z,1.2
2023-04-30T11:56:02.573Z,1.1
2023-04-30T11:57:18.823Z,1.2
2023-04-30T11:58:35.048Z,1.3
2023-04-30T11:59:51.294Z,1.6
2023-04-30T12:01:07.536Z,1.3
2023-04-30T12:02:23.787Z,1.5
2023-04-30T12:03:40.024Z,1.3
2023-04-30T12:04:56.256Z,1.2
2023-04-30T12:06:12.504Z,1.5
2023-04-30T12:07:27.755Z,1.5
2023-04-30T12:08:44.007Z,1.5
2023-04-30T12:10:00.257Z,1.5
2023-04-30T12:11:16.481Z,1.1
2023-04-30T12:12:32.732Z,1.2
2023-04-30T12:13:48.973Z,1.4
2023-04-30T12:15:05.217Z,1.5
2023-04-30T12:16:21.449Z,1.4
2023-04-30T12:17:37.696Z,1.2
2023-04-30T12:18:53.934Z,1.4
2023-04-30T12:20:10.170Z,1.5
2023-04-30T12:21:26.409Z,1.4
2023-04-30T12:22:42.649Z,1.4
2023-04-30T12:23:57.904Z,1.4
2023-04-30T12:25:14.146Z,1.2
2023-04-30T12:26:30.382Z,1.5
2023-04-30T12:27:46.644Z,1.4
2023-04-30T12:29:02.881Z,1.2
2023-04-30T12:30:19.100Z,1.4
2023-04-30T12:31:35.342Z,1.3
2023-04-30T12:32:51.597Z,1.7
2023-04-30T12:34:07.828Z,1
2023-04-30T12:36:40.314Z,1.7
2023-04-30T12:37:56.560Z,1.3
2023-04-30T12:39:12.793Z,1.2
2023-04-30T12:40:28.050Z,1.3
2023-04-30T12:41:44.286Z,1.1
2023-04-30T12:43:00.532Z,1.1
2023-04-30T12:44:16.760Z,1.2
2023-04-30T12:45:33.013Z,1.2
2023-04-30T12:46:49.248Z,1
2023-04-30T12:48:04.505Z,1.3
2023-04-30T12:49:20.752Z,1.1
2023-04-30T12:50:36.984Z,1.3
2023-04-30T12:51:53.233Z,1.5
2023-04-30T12:53:09.472Z,1.2
2023-04-30T12:54:25.708Z,1.3
2023-04-30T12:55:41.955Z,1.2
2023-04-30T12:56:58.193Z,1.3
2023-04-30T12:58:14.449Z,1.4
2023-04-30T12:59:30.679Z,1.3
2023-04-30T13:00:46.921Z,1.4
2023-04-30T13:02:03.151Z,1.1
2023-04-30T13:03:19.393Z,1.2
2023-04-30T13:04:34.657Z,1.5
2023-04-30T13:05:50.906Z,1.3
2023-04-30T13:07:07.130Z,1.3
2023-04-30T13:08:23.364Z,1
2023-04-30T13:09:39.615Z,0.9
2023-04-30T13:10:55.870Z,1
2023-04-30T13:12:12.100Z,0.9
2023-04-30T13:13:28.340Z,1
2023-04-30T13:14:44.566Z,0.9
2023-04-30T13:16:00.816Z,1.1
2023-04-30T13:17:17.062Z,0.9
2023-04-30T13:18:33.290Z,0.9
2023-04-30T13:19:49.527Z,0.9
2023-04-30T13:21:04.793Z,1
2023-04-30T13:22:21.047Z,1.1
2023-04-30T13:23:37.282Z,1.1
2023-04-30T13:24:53.506Z,1
2023-04-30T13:26:09.760Z,0.8
2023-04-30T13:27:25.999Z,0.8
2023-04-30T13:28:42.231Z,0.9
2023-04-30T13:29:58.477Z,1
2023-04-30T13:31:14.715Z,1
2023-04-30T13:32:30.950Z,1
2023-04-30T13:33:47.187Z,1
2023-04-30T13:35:03.451Z,1.1
2023-04-30T13:36:19.686Z,1
2023-04-30T13:37:34.932Z,0.9
2023-04-30T13:38:51.168Z,0.9
2023-04-30T13:40:07.407Z,1.2
2023-04-30T13:41:23.653Z,0.9
2023-04-30T13:42:39.888Z,0.9
2023-04-30T13:43:56.130Z,1.2
2023-04-30T13:45:12.375Z,0.8
2023-04-30T13:46:28.616Z,0.9
2023-04-30T13:47:44.851Z,1
2023-04-30T13:49:01.098Z,0.9
2023-04-30T13:50:17.332Z,0.9
2023-04-30T13:51:33.569Z,1
2023-04-30T13:52:49.820Z,0.8
2023-04-30T13:54:05.080Z,1
2023-04-30T13:55:21.325Z,0.9
2023-04-30T13:56:37.549Z,0.9
2023-04-30T13:57:53.791Z,1
2023-04-30T13:59:10.037Z,0.9
2023-04-30T14:00:26.266Z,0.9
2023-04-30T14:01:42.519Z,0.8
2023-04-30T14:02:58.757Z,0.8
2023-04-30T14:04:15.003Z,0.9
2023-04-30T14:05:31.248Z,0.9
2023-04-30T14:06:47.471Z,1.1
2023-04-30T14:08:03.722Z,0.8
2023-04-30T14:09:19.964Z,1.2
2023-04-30T14:10:35.225Z,0.9
2023-04-30T14:11:51.466Z,0.9
2023-04-30T14:13:07.702Z,0.8
2023-04-30T14:14:23.938Z,1
2023-04-30T14:15:40.179Z,0.9
2023-04-30T14:16:56.418Z,0.9
2023-04-30T14:18:12.651Z,1
2023-04-30T14:19:28.905Z,1.1
2023-04-30T14:20:45.145Z,0.8
2023-04-30T14:22:01.371Z,1.1
2023-04-30T14:23:17.613Z,1
2023-04-30T14:24:33.855Z,0.9
2023-04-30T14:25:50.090Z,1
2023-04-30T14:27:05.361Z,0.9
2023-04-30T14:28:21.598Z,0.9
2023-04-30T14:29:37.849Z,1.1
2023-04-30T14:30:54.087Z,0.8
2023-04-30T14:32:10.314Z,0.8
2023-04-30T14:33:26.556Z,1
2023-04-30T14:34:42.801Z,0.9
2023-04-30T14:35:59.028Z,1.2
2023-04-30T14:37:15.278Z,1.1
2023-04-30T14:38:31.000Z,1
2023-04-30T14:39:47.766Z,0.9
2023-04-30T14:41:03.995Z,1.2
2023-04-30T14:42:20.251Z,0.8
2023-04-30T14:43:35.488Z,1
2023-04-30T14:44:51.740Z,1.3
2023-04-30T14:46:07.990Z,1.1
2023-04-30T14:47:24.221Z,1.5
2023-04-30T14:48:40.462Z,0.9
2023-04-30T14:49:56.715Z,1
2023-04-30T14:51:12.949Z,0.9
2023-04-30T14:52:29.181Z,1
2023-04-30T14:53:45.440Z,1
2023-04-30T14:55:01.663Z,1
2023-04-30T14:56:17.919Z,1.1
2023-04-30T14:57:34.151Z,1.4
2023-04-30T14:58:50.386Z,1.1
2023-04-30T15:00:05.658Z,1
2023-04-30T15:01:21.879Z,0.8
2023-04-30T15:02:38.128Z,1.1
2023-04-30T15:03:54.368Z,0.9
2023-04-30T15:05:10.605Z,1
2023-04-30T15:06:26.845Z,0.8
2023-04-30T15:07:43.080Z,1
2023-04-30T15:08:59.327Z,0.9
2023-04-30T15:10:15.575Z,1
2023-04-30T15:11:31.813Z,1
2023-04-30T15:12:48.060Z,1.1
2023-04-30T15:14:04.283Z,1
2023-04-30T15:15:20.531Z,0.8
2023-04-30T15:16:35.796Z,1.2
2023-04-30T15:17:52.038Z,1
2023-04-30T15:19:08.260Z,0.8
2023-04-30T15:20:24.510Z,0.9
2023-04-30T15:21:40.768Z,0.8
2023-04-30T15:22:56.989Z,0.9
2023-04-30T15:24:13.230Z,0.9
2023-04-30T15:25:29.472Z,1
2023-04-30T15:26:45.722Z,1
2023-04-30T15:28:01.945Z,0.8
2023-04-30T15:29:18.182Z,0.9
2023-04-30T15:30:34.436Z,1.2
2023-04-30T15:31:50.673Z,0.9
2023-04-30T15:33:05.935Z,1
2023-04-30T15:34:22.170Z,1
2023-04-30T15:35:38.406Z,0.8
2023-04-30T15:36:54.640Z,0.9
2023-04-30T15:38:10.881Z,0.9
2023-04-30T15:39:27.134Z,1.3
2023-04-30T15:40:43.378Z,0.9
2023-04-30T15:41:59.611Z,0.9
2023-04-30T15:43:15.853Z,0.9
2023-04-30T15:44:32.090Z,1
2023-04-30T15:45:48.327Z,0.8
2023-04-30T15:47:04.562Z,1
2023-04-30T15:48:20.817Z,1.1
2023-04-30T15:49:36.067Z,0.8
2023-04-30T15:50:52.306Z,1
2023-04-30T15:52:08.540Z,0.9
2023-04-30T15:53:24.777Z,1
2023-04-30T15:54:41.030Z,0.9
2023-04-30T15:55:57.287Z,0.9
2023-04-30T15:57:13.515Z,1.1
2023-04-30T15:58:29.738Z,0.9
2023-04-30T15:59:45.992Z,1
2023-04-30T16:01:02.237Z,1.1
2023-04-30T16:02:18.477Z,1
2023-04-30T16:03:34.714Z,0.9
2023-04-30T16:04:50.940Z,1
2023-04-30T16:06:06.202Z,1.1
2023-04-30T16:07:22.445Z,1.3
2023-04-30T16:08:38.703Z,1.3
2023-04-30T16:09:54.915Z,1
2023-04-30T16:11:11.154Z,1.1
2023-04-30T16:12:27.401Z,1.1
2023-04-30T16:13:43.638Z,0.9
2023-04-30T16:14:59.878Z,1.7
2023-04-30T16:16:16.130Z,1.1
2023-04-30T16:17:32.373Z,1.1
2023-04-30T16:18:48.613Z,1
2023-04-30T16:20:04.850Z,0.9
2023-04-30T16:21:21.090Z,1.2
2023-04-30T16:22:36.333Z,1
2023-04-30T16:23:52.576Z,1
2023-04-30T16:25:08.830Z,1
2023-04-30T16:26:25.060Z,0.9
2023-04-30T16:27:41.305Z,1.1
2023-04-30T16:28:57.538Z,0.9
2023-04-30T16:30:13.791Z,0.7
2023-04-30T16:31:30.027Z,0.8
2023-04-30T16:32:46.269Z,0.9
2023-04-30T16:34:02.509Z,1
2023-04-30T16:35:18.745Z,0.8
2023-04-30T16:36:34.996Z,1
2023-04-30T16:37:51.231Z,0.9
2023-04-30T16:39:06.482Z,0.8
2023-04-30T16:40:22.723Z,1
2023-04-30T16:41:38.965Z,0.9
2023-04-30T16:42:55.207Z,1
2023-04-30T16:44:11.445Z,1.3
2023-04-30T16:45:27.687Z,1.3
2023-04-30T16:46:43.933Z,0.9
2023-04-30T16:48:00.156Z,1.1
2023-04-30T16:49:16.412Z,1.3
2023-04-30T16:50:32.638Z,0.9
2023-04-30T16:51:48.880Z,1
2023-04-30T16:53:05.131Z,0.9
2023-04-30T16:54:21.379Z,1
2023-04-30T16:55:36.627Z,1
2023-04-30T16:56:52.876Z,1
2023-04-30T16:58:09.114Z,1.4
2023-04-30T16:59:25.349Z,1.2
2023-04-30T17:00:41.592Z,1.2
2023-04-30T17:01:57.823Z,1.1
2023-04-30T17:03:13.077Z,0.7
2023-04-30T17:04:29.324Z,1
2023-04-30T17:05:45.562Z,1.4
2023-04-30T17:07:01.814Z,0.9
2023-04-30T17:08:18.048Z,1.1
2023-04-30T17:09:34.285Z,0.9
2023-04-30T17:10:50.535Z,1
2023-04-30T17:12:06.774Z,0.9
2023-04-30T17:13:23.001Z,1
2023-04-30T17:14:39.253Z,1.3
2023-04-30T17:15:55.498Z,1
2023-04-30T17:17:11.738Z,0.9
2023-04-30T17:18:27.963Z,1
2023-04-30T17:19:43.223Z,1.2
2023-04-30T17:20:59.459Z,1
2023-04-30T17:22:15.712Z,0.9
2023-04-30T17:23:31.957Z,0.8
2023-04-30T17:24:48.182Z,1
2023-04-30T17:26:04.434Z,1.6
2023-04-30T17:27:20.665Z,1
2023-04-30T17:28:36.900Z,0.9
2023-04-30T17:29:53.146Z,1.1
2023-04-30T17:31:09.387Z,0.8
2023-04-30T17:32:25.633Z,1.3
2023-04-30T17:33:41.870Z,0.8
2023-04-30T17:34:58.119Z,0.9
2023-04-30T17:36:13.357Z,0.9
2023-04-30T17:37:29.626Z,1
2023-04-30T17:38:45.843Z,1.1
2023-04-30T17:40:02.085Z,1.1
2023-04-30T17:41:18.335Z,0.9
2023-04-30T17:42:34.562Z,0.9